createdAt,value
2019-01-18T00:00:41.817Z,8.63
2019-01-18T00:03:11.309Z,6.60
2019-01-18T00:05:40.837Z,6.10
2019-01-18T00:08:11.901Z,7.20
2019-01-18T00:10:41.403Z,6.67
2019-01-18T00:13:10.907Z,8.80
2019-01-18T00:15:40.447Z,7.57
2019-01-18T00:18:09.882Z,6.57
2019-01-18T00:20:39.341Z,7.40
2019-01-18T00:23:08.867Z,5.93
2019-01-18T00:25:38.333Z,7.73
2019-01-18T00:28:07.884Z,7.10
2019-01-18T00:30:37.393Z,8.23
2019-01-18T00:33:07.012Z,7.67
2019-01-18T00:35:36.462Z,7.17
2019-01-18T00:38:06.149Z,7.30
2019-01-18T00:40:35.695Z,6.90
2019-01-18T00:43:05.196Z,7.90
2019-01-18T00:45:34.730Z,7.07
2019-01-18T00:48:04.259Z,8.17
2019-01-18T00:50:33.855Z,9.03
2019-01-18T00:53:03.298Z,7.80
2019-01-18T00:55:32.773Z,7.70
2019-01-18T00:58:02.254Z,9.23
2019-01-18T01:00:51.055Z,9.83
2019-01-18T01:03:20.674Z,7.73
2019-01-18T01:05:50.288Z,9.57
2019-01-18T01:08:19.912Z,8.93
2019-01-18T01:10:49.478Z,8.50
2019-01-18T01:13:19.018Z,8.10
2019-01-18T01:15:48.532Z,10.03
2019-01-18T01:18:18.092Z,11.97
2019-01-18T01:20:47.602Z,8.53
2019-01-18T01:23:17.055Z,9.57
2019-01-18T01:25:46.547Z,9.13
2019-01-18T01:28:15.986Z,9.20
2019-01-18T01:30:46.041Z,8.80
2019-01-18T01:33:15.598Z,8.93
2019-01-18T01:35:45.019Z,11.27
2019-01-18T01:38:15.291Z,8.17
2019-01-18T01:40:44.924Z,9.23
2019-01-18T01:43:14.617Z,9.17
2019-01-18T01:45:44.122Z,9.17
2019-01-18T01:48:13.607Z,10.87
2019-01-18T01:50:43.051Z,8.63
2019-01-18T01:53:12.500Z,12.07
2019-01-18T01:55:41.954Z,9.30
2019-01-18T01:58:11.493Z,9.47
2019-01-18T02:00:41.058Z,8.80
2019-01-18T02:03:10.534Z,10.13
2019-01-18T02:05:40.000Z,9.13
2019-01-18T02:08:09.506Z,8.20
2019-01-18T02:10:39.000Z,9.17
2019-01-18T02:13:08.513Z,9.50
2019-01-18T02:15:37.941Z,10.57
2019-01-18T02:18:07.939Z,9.57
2019-01-18T02:20:37.686Z,10.33
2019-01-18T02:23:07.269Z,10.37
2019-01-18T02:25:36.839Z,12.63
2019-01-18T02:28:08.007Z,10.50
2019-01-18T02:30:37.640Z,10.97
2019-01-18T02:33:07.177Z,11.13
2019-01-18T02:35:36.755Z,11.90
2019-01-18T02:38:06.204Z,10.90
2019-01-18T02:40:35.769Z,10.70
2019-01-18T02:43:05.332Z,10.30
2019-01-18T02:45:34.818Z,11.40
2019-01-18T02:48:04.391Z,11.20
2019-01-18T02:50:33.906Z,10.77
2019-01-18T02:53:03.360Z,13.17
2019-01-18T02:55:33.013Z,9.83
2019-01-18T02:58:02.456Z,12.10
2019-01-18T03:00:31.908Z,14.07
2019-01-18T03:03:01.449Z,11.93
2019-01-18T03:05:31.076Z,10.80
2019-01-18T03:08:00.604Z,10.50
2019-01-18T03:10:31.673Z,13.83
2019-01-18T03:13:01.142Z,10.97
2019-01-18T03:15:30.562Z,13.13
2019-01-18T03:18:00.020Z,13.07
2019-01-18T03:20:29.539Z,12.20
2019-01-18T03:22:58.982Z,13.17
2019-01-18T03:25:28.722Z,11.93
2019-01-18T03:27:58.173Z,12.30
2019-01-18T03:30:27.758Z,11.50
2019-01-18T03:32:57.351Z,9.77
2019-01-18T03:35:26.913Z,11.23
2019-01-18T03:37:56.460Z,10.43
2019-01-18T03:40:26.084Z,11.07
2019-01-18T03:42:55.611Z,9.60
2019-01-18T03:45:25.159Z,11.30
2019-01-18T03:47:54.623Z,11.60
2019-01-18T03:50:26.238Z,8.70
2019-01-18T03:52:56.133Z,12.80
2019-01-18T03:55:25.734Z,14.73
2019-01-18T03:57:55.394Z,13.97
2019-01-18T04:00:28.355Z,12.53
2019-01-18T04:02:57.946Z,11.37
2019-01-18T04:05:27.465Z,13.80
2019-01-18T04:07:57.078Z,15.50
2019-01-18T04:10:26.737Z,11.53
2019-01-18T04:12:56.277Z,11.07
2019-01-18T04:15:26.040Z,10.63
2019-01-18T04:17:55.642Z,14.10
2019-01-18T04:20:25.429Z,12.30
2019-01-18T04:22:54.984Z,14.13
2019-01-18T04:25:26.074Z,10.63
2019-01-18T04:27:55.550Z,12.67
2019-01-18T04:30:32.970Z,11.50
2019-01-18T04:32:56.714Z,15.67
2019-01-18T04:35:26.344Z,11.60
2019-01-18T04:37:56.047Z,14.63
2019-01-18T04:40:28.240Z,11.83
2019-01-18T04:42:58.183Z,14.10
2019-01-18T04:45:27.845Z,14.43
2019-01-18T04:47:57.434Z,13.10
2019-01-18T04:50:29.383Z,13.57
2019-01-18T04:52:58.915Z,11.97
2019-01-18T04:55:28.590Z,11.13
2019-01-18T04:57:58.030Z,9.90
2019-01-18T05:00:32.291Z,8.50
2019-01-18T05:03:01.777Z,10.00
2019-01-18T05:05:31.286Z,10.80
2019-01-18T05:08:00.813Z,11.23
2019-01-18T05:10:30.828Z,10.23
2019-01-18T05:13:00.429Z,9.97
2019-01-18T05:15:33.088Z,12.43
2019-01-18T05:18:02.655Z,12.67
2019-01-18T05:20:32.168Z,13.13
2019-01-18T05:23:01.628Z,14.83
2019-01-18T05:25:31.087Z,11.83
2019-01-18T05:28:00.612Z,14.47
2019-01-18T05:30:31.464Z,14.57
2019-01-18T05:33:20.299Z,14.53
2019-01-18T05:35:49.706Z,16.27
2019-01-18T05:38:19.180Z,13.50
2019-01-18T05:40:48.592Z,17.57
2019-01-18T05:43:18.019Z,13.73
2019-01-18T05:45:47.502Z,17.30
2019-01-18T05:48:16.893Z,15.37
2019-01-18T05:50:46.312Z,15.07
2019-01-18T05:53:16.187Z,15.50
2019-01-18T05:55:45.740Z,16.10
2019-01-18T05:58:15.162Z,13.33
2019-01-18T06:00:46.286Z,12.27
2019-01-18T06:03:15.805Z,14.77
2019-01-18T06:05:45.618Z,11.70
2019-01-18T06:08:15.119Z,13.67
2019-01-18T06:10:44.531Z,15.27
2019-01-18T06:13:13.960Z,16.50
2019-01-18T06:15:43.399Z,13.83
2019-01-18T06:18:12.799Z,14.33
2019-01-18T06:20:42.300Z,12.73
2019-01-18T06:23:11.703Z,12.73
2019-01-18T06:25:41.199Z,14.50
2019-01-18T06:28:10.579Z,10.73
2019-01-18T06:30:40.005Z,15.43
2019-01-18T06:33:09.406Z,13.13
2019-01-18T06:35:38.959Z,12.83
2019-01-18T06:38:08.515Z,13.43
2019-01-18T06:40:38.004Z,14.90
2019-01-18T06:43:07.491Z,16.03
2019-01-18T06:45:36.980Z,15.30
2019-01-18T06:48:06.997Z,15.13
2019-01-18T06:50:36.420Z,15.67
2019-01-18T06:53:06.252Z,17.50
2019-01-18T06:55:35.655Z,15.83
2019-01-18T06:58:05.323Z,12.47
2019-01-18T07:00:34.963Z,13.00
2019-01-18T07:03:04.752Z,11.77
2019-01-18T07:05:34.167Z,13.13
2019-01-18T07:08:03.651Z,14.13
2019-01-18T07:10:33.192Z,14.03
2019-01-18T07:13:02.603Z,14.27
2019-01-18T07:15:32.116Z,13.40
2019-01-18T07:18:01.573Z,12.73
2019-01-18T07:20:31.092Z,9.10
2019-01-18T07:23:00.636Z,14.73
2019-01-18T07:25:30.698Z,14.43
2019-01-18T07:28:00.223Z,12.53
2019-01-18T07:30:38.196Z,16.67
2019-01-18T07:33:11.315Z,16.70
2019-01-18T07:35:40.802Z,14.37
2019-01-18T07:38:10.291Z,15.27
2019-01-18T07:40:39.833Z,15.40
2019-01-18T07:43:09.441Z,15.17
2019-01-18T07:45:38.933Z,15.27
2019-01-18T07:48:08.556Z,17.50
2019-01-18T07:50:37.966Z,16.23
2019-01-18T07:53:08.006Z,18.07
2019-01-18T07:55:37.485Z,19.77
2019-01-18T07:58:07.168Z,20.87
2019-01-18T08:00:36.692Z,17.13
2019-01-18T08:03:06.301Z,18.03
2019-01-18T08:05:35.984Z,24.33
2019-01-18T08:08:06.012Z,19.93
2019-01-18T08:10:35.633Z,20.47
2019-01-18T08:13:05.652Z,24.57
2019-01-18T08:15:35.073Z,25.07
2019-01-18T08:18:04.660Z,29.43
2019-01-18T08:20:34.187Z,23.67
2019-01-18T08:23:03.868Z,22.00
2019-01-18T08:25:33.492Z,14.47
2019-01-18T08:28:03.176Z,18.13
2019-01-18T08:30:32.800Z,16.80
2019-01-18T08:33:02.331Z,20.20
2019-01-18T08:35:31.914Z,21.17
2019-01-18T08:38:01.527Z,22.23
2019-01-18T08:40:36.795Z,20.00
2019-01-18T08:43:08.472Z,27.23
2019-01-18T08:45:44.845Z,25.30
2019-01-18T08:48:14.396Z,30.13
2019-01-18T08:50:44.371Z,29.63
2019-01-18T08:53:13.956Z,38.77
2019-01-18T08:55:43.485Z,43.97
2019-01-18T08:58:12.933Z,49.50
2019-01-18T09:00:42.478Z,46.40
2019-01-18T09:03:11.952Z,62.27
2019-01-18T09:05:41.448Z,69.17
2019-01-18T09:08:10.916Z,29.27
2019-01-18T09:10:40.875Z,48.77
2019-01-18T09:13:10.332Z,48.70
2019-01-18T09:15:39.850Z,72.23
2019-01-18T09:18:09.520Z,63.23
2019-01-18T09:20:39.099Z,86.83
2019-01-18T09:23:08.607Z,76.97
2019-01-18T09:25:38.088Z,59.53
2019-01-18T09:28:07.763Z,71.50
2019-01-18T09:30:37.354Z,77.83
2019-01-18T09:33:07.341Z,82.90
2019-01-18T09:35:37.177Z,69.87
2019-01-18T09:38:09.258Z,66.67
2019-01-18T09:40:38.826Z,59.50
2019-01-18T09:43:08.377Z,71.13
2019-01-18T09:45:38.431Z,68.90
2019-01-18T09:48:08.529Z,66.60
2019-01-18T09:50:38.064Z,65.73
2019-01-18T09:53:09.031Z,66.47
2019-01-18T09:55:38.495Z,61.77
2019-01-18T09:58:08.090Z,57.87
2019-01-18T10:00:39.127Z,85.00
2019-01-18T10:03:08.709Z,91.57
2019-01-18T10:05:38.233Z,118.00
2019-01-18T10:08:07.893Z,94.27
2019-01-18T10:10:37.525Z,78.53
2019-01-18T10:13:07.116Z,72.00
2019-01-18T10:15:40.779Z,72.07
2019-01-18T10:18:10.581Z,70.23
2019-01-18T10:20:40.035Z,117.40
2019-01-18T10:23:09.554Z,77.07
2019-01-18T10:25:39.232Z,79.70
2019-01-18T10:28:08.829Z,65.97
2019-01-18T10:30:38.434Z,58.63
2019-01-18T10:33:08.123Z,67.37
2019-01-18T10:35:37.781Z,84.47
2019-01-18T10:38:07.453Z,99.57
2019-01-18T10:40:36.984Z,99.33
2019-01-18T10:43:06.572Z,82.20
2019-01-18T10:45:36.172Z,122.47
2019-01-18T10:48:05.863Z,102.50
2019-01-18T10:50:35.392Z,120.27
2019-01-18T10:53:05.046Z,102.73
2019-01-18T10:55:34.733Z,102.10
2019-01-18T10:58:04.689Z,78.00
2019-01-18T11:00:35.101Z,83.97
2019-01-18T11:03:05.006Z,75.10
2019-01-18T11:05:34.531Z,73.70
2019-01-18T11:08:04.257Z,69.30
2019-01-18T11:10:33.716Z,72.83
2019-01-18T11:13:03.149Z,89.17
2019-01-18T11:15:36.022Z,81.80
2019-01-18T11:18:04.515Z,77.93
2019-01-18T11:20:51.141Z,87.33
2019-01-18T11:23:20.822Z,75.40
2019-01-18T11:25:50.418Z,68.17
2019-01-18T11:28:19.949Z,105.40
2019-01-18T11:30:49.433Z,70.07
2019-01-18T11:33:18.874Z,66.67
2019-01-18T11:35:48.315Z,49.63
2019-01-18T11:38:18.007Z,52.93
2019-01-18T11:40:47.639Z,47.90
2019-01-18T11:43:17.411Z,69.33
2019-01-18T11:45:46.981Z,63.50
2019-01-18T11:48:16.443Z,53.07
2019-01-18T11:50:46.925Z,77.83
2019-01-18T11:53:16.420Z,96.47
2019-01-18T11:55:45.943Z,83.90
2019-01-18T11:58:15.419Z,90.23
2019-01-18T12:00:44.884Z,100.00
2019-01-18T12:03:14.350Z,79.73
2019-01-18T12:05:43.885Z,71.47
2019-01-18T12:08:13.492Z,67.43
2019-01-18T12:10:43.021Z,115.20
2019-01-18T12:13:12.531Z,53.57
2019-01-18T12:15:41.995Z,81.27
2019-01-18T12:18:11.442Z,61.13
2019-01-18T12:20:40.925Z,90.43
2019-01-18T12:23:10.531Z,63.63
2019-01-18T12:25:39.977Z,69.20
2019-01-18T12:28:09.407Z,95.57
2019-01-18T12:30:38.963Z,69.90
2019-01-18T12:33:08.426Z,57.97
2019-01-18T12:35:37.959Z,90.73
2019-01-18T12:38:07.604Z,61.43
2019-01-18T12:40:37.051Z,64.93
2019-01-18T12:43:06.560Z,59.27
2019-01-18T12:45:36.208Z,56.10
2019-01-18T12:48:05.944Z,64.00
2019-01-18T12:50:36.616Z,57.53
2019-01-18T12:53:06.296Z,52.43
2019-01-18T12:55:35.894Z,46.00
2019-01-18T12:58:05.489Z,47.03
2019-01-18T13:00:35.083Z,60.67
2019-01-18T13:03:04.936Z,50.83
2019-01-18T13:05:39.225Z,52.77
2019-01-18T13:08:09.002Z,54.60
2019-01-18T13:10:38.509Z,51.33
2019-01-18T13:13:08.219Z,50.50
2019-01-18T13:16:00.472Z,69.00
2019-01-18T13:18:30.005Z,57.13
2019-01-18T13:20:59.549Z,47.07
2019-01-18T13:23:29.094Z,60.90
2019-01-18T13:25:58.664Z,52.37
2019-01-18T13:28:28.093Z,52.30
2019-01-18T13:30:57.659Z,60.87
2019-01-18T13:33:27.226Z,70.23
2019-01-18T13:35:56.723Z,53.67
2019-01-18T13:38:26.489Z,62.43
2019-01-18T13:40:55.952Z,64.73
2019-01-18T13:43:25.525Z,58.53
2019-01-18T13:45:55.347Z,51.67
2019-01-18T13:48:24.939Z,52.80
2019-01-18T13:50:54.503Z,58.47
2019-01-18T13:53:24.043Z,55.20
2019-01-18T13:55:53.576Z,53.57
2019-01-18T13:58:23.034Z,59.13
2019-01-18T14:00:52.512Z,53.03
2019-01-18T14:03:22.008Z,51.97
2019-01-18T14:05:51.560Z,47.13
2019-01-18T14:08:21.098Z,46.77
2019-01-18T14:10:50.556Z,40.47
2019-01-18T14:13:20.113Z,37.23
2019-01-18T14:15:49.614Z,41.70
2019-01-18T14:18:19.164Z,51.17
2019-01-18T14:20:48.710Z,47.50
2019-01-18T14:23:18.219Z,47.23
2019-01-18T14:25:47.792Z,45.40
2019-01-18T14:28:17.412Z,39.80
2019-01-18T14:30:47.003Z,37.80
2019-01-18T14:33:16.550Z,32.17
2019-01-18T14:35:46.054Z,28.13
2019-01-18T14:38:15.521Z,30.77
2019-01-18T14:40:45.014Z,29.30
2019-01-18T14:43:14.478Z,30.37
2019-01-18T14:45:44.854Z,31.70
2019-01-18T14:48:14.320Z,28.00
2019-01-18T14:50:43.967Z,25.97
2019-01-18T14:53:13.484Z,28.20
2019-01-18T14:55:42.934Z,23.97
2019-01-18T14:58:13.016Z,23.30
2019-01-18T15:00:42.722Z,27.53
2019-01-18T15:03:13.553Z,27.23
2019-01-18T15:05:43.385Z,27.13
2019-01-18T15:08:13.074Z,23.33
2019-01-18T15:10:42.605Z,23.73
2019-01-18T15:13:14.561Z,26.63
2019-01-18T15:15:44.110Z,34.23
2019-01-18T15:18:13.733Z,25.97
2019-01-18T15:20:43.447Z,24.57
2019-01-18T15:23:13.226Z,49.43
2019-01-18T15:25:42.664Z,44.67
2019-01-18T15:28:12.186Z,34.37
2019-01-18T15:30:41.738Z,33.27
2019-01-18T15:35:40.009Z,28.73
2019-01-18T15:38:09.699Z,23.20
2019-01-18T15:40:43.544Z,28.47
2019-01-18T15:43:14.840Z,28.73
2019-01-18T15:45:44.504Z,29.90
2019-01-18T15:48:14.086Z,27.77
2019-01-18T15:50:43.682Z,26.93
2019-01-18T15:53:13.352Z,28.13
2019-01-18T15:55:42.874Z,38.63
2019-01-18T15:58:12.493Z,30.97
2019-01-18T16:00:43.460Z,33.10
2019-01-18T16:03:16.170Z,26.33
2019-01-18T16:05:44.615Z,28.93
2019-01-18T16:08:14.277Z,27.37
2019-01-18T16:10:44.114Z,28.97
2019-01-18T16:13:13.751Z,26.73
2019-01-18T16:15:47.840Z,31.07
2019-01-18T16:18:21.966Z,28.27
2019-01-18T16:20:51.504Z,31.40
2019-01-18T16:23:21.506Z,31.00
2019-01-18T16:25:51.106Z,26.00
2019-01-18T16:28:20.665Z,31.63
2019-01-18T16:30:50.130Z,31.87
2019-01-18T16:33:23.507Z,32.67
2019-01-18T16:35:51.062Z,32.53
2019-01-18T16:38:20.494Z,29.20
2019-01-18T16:40:50.190Z,29.30
2019-01-18T16:43:24.500Z,30.20
2019-01-18T16:45:54.266Z,27.80
2019-01-18T16:48:23.726Z,33.03
2019-01-18T16:50:53.252Z,30.83
2019-01-18T16:53:22.872Z,30.13
2019-01-18T16:55:52.314Z,32.40
2019-01-18T16:58:21.866Z,31.53
2019-01-18T17:00:55.966Z,44.27
2019-01-18T17:03:30.347Z,29.20
2019-01-18T17:06:01.683Z,34.33
2019-01-18T17:08:31.159Z,70.93
2019-01-18T17:11:00.676Z,29.20
2019-01-18T17:13:30.307Z,33.43
2019-01-18T17:15:59.831Z,33.97
2019-01-18T17:18:29.745Z,35.03
2019-01-18T17:20:59.423Z,29.53
2019-01-18T17:23:28.905Z,31.47
2019-01-18T17:25:58.368Z,32.27
2019-01-18T17:28:27.959Z,27.23
2019-01-18T17:30:57.447Z,35.27
2019-01-18T17:33:27.135Z,31.43
2019-01-18T17:36:09.407Z,29.70
2019-01-18T17:38:55.203Z,34.57
2019-01-18T17:41:38.185Z,35.87
2019-01-18T17:44:30.556Z,47.23
2019-01-18T17:47:13.376Z,36.10
2019-01-18T17:50:11.464Z,35.57
2019-01-18T17:53:00.534Z,28.10
2019-01-18T17:55:37.329Z,32.57
2019-01-18T18:01:44.972Z,29.60
2019-01-18T18:04:37.191Z,28.33
2019-01-18T18:07:23.059Z,31.50
2019-01-18T18:09:59.917Z,32.00
2019-01-18T18:12:52.045Z,38.00
2019-01-18T18:15:45.378Z,59.27
2019-01-18T18:19:04.522Z,40.57
2019-01-18T18:22:09.563Z,34.53
2019-01-18T18:25:08.825Z,36.30
2019-01-18T18:28:07.995Z,37.40
2019-01-18T18:30:59.301Z,33.93
2019-01-18T18:33:50.445Z,36.10
2019-01-18T18:36:23.503Z,32.53
2019-01-18T18:39:04.508Z,40.57
2019-01-18T18:41:59.302Z,51.37
2019-01-18T18:45:17.055Z,33.50
2019-01-18T18:48:27.650Z,41.93
2019-01-18T18:51:16.003Z,46.80
2019-01-18T18:54:23.186Z,40.47
2019-01-18T18:57:05.342Z,38.23
2019-01-18T19:00:10.853Z,42.00
2019-01-18T19:03:11.505Z,36.70
2019-01-18T19:06:00.548Z,40.63
2019-01-18T19:08:46.109Z,38.73
2019-01-18T19:11:44.491Z,57.80
2019-01-18T19:14:53.201Z,48.17
2019-01-18T19:17:49.698Z,58.63
2019-01-18T19:20:38.507Z,45.17
2019-01-18T19:23:12.635Z,41.07
2019-01-18T19:25:53.775Z,37.83
2019-01-18T19:28:39.251Z,59.13
2019-01-18T19:31:38.661Z,43.57
2019-01-18T19:34:57.889Z,55.53
2019-01-18T19:40:46.418Z,49.90
2019-01-18T19:43:35.200Z,46.40
2019-01-18T19:46:37.996Z,39.50
2019-01-18T19:49:34.041Z,39.10
2019-01-18T19:52:43.906Z,36.47
2019-01-18T19:55:26.709Z,46.80
2019-01-18T19:58:34.914Z,47.07
2019-01-18T20:01:20.655Z,39.77
2019-01-18T20:04:11.712Z,44.50
2019-01-18T20:06:59.976Z,64.57
2019-01-18T20:09:42.832Z,75.57
2019-01-18T20:13:07.254Z,69.87
2019-01-18T20:16:01.543Z,48.90
2019-01-18T20:19:04.149Z,62.17
2019-01-18T20:21:55.949Z,45.50
2019-01-18T20:25:03.480Z,58.90
2019-01-18T20:27:56.682Z,48.57
2019-01-18T20:30:58.917Z,37.63
2019-01-18T20:34:04.305Z,35.83
2019-01-18T20:36:53.159Z,41.07
2019-01-18T20:39:43.770Z,39.10
2019-01-18T20:42:17.885Z,34.93
2019-01-18T20:45:00.192Z,35.87
2019-01-18T20:47:52.470Z,34.23
2019-01-18T20:51:01.301Z,39.87
2019-01-18T20:54:22.015Z,37.20
2019-01-18T20:57:27.796Z,35.77
2019-01-18T21:00:44.213Z,39.40
2019-01-18T21:03:32.909Z,32.40
2019-01-18T21:06:21.754Z,32.80
2019-01-18T21:09:28.853Z,31.47
2019-01-18T21:12:22.589Z,32.77
2019-01-18T21:15:14.619Z,32.30
2019-01-18T21:18:10.916Z,32.40
2019-01-18T21:21:06.058Z,33.23
2019-01-18T21:23:45.711Z,30.30
2019-01-18T21:26:39.323Z,31.13
2019-01-18T21:29:30.727Z,38.40
2019-01-18T21:32:10.849Z,34.70
2019-01-18T21:35:14.679Z,34.20
2019-01-18T21:37:51.643Z,32.87
2019-01-18T21:41:00.663Z,33.97
2019-01-18T21:43:46.549Z,30.53
2019-01-18T21:46:53.807Z,38.20
2019-01-18T21:49:42.467Z,35.47
2019-01-18T21:52:22.205Z,34.17
2019-01-18T21:55:04.415Z,36.53
2019-01-18T21:57:53.015Z,33.90
2019-01-18T22:00:29.722Z,32.33
2019-01-18T22:03:09.676Z,31.40
2019-01-18T22:05:55.039Z,33.53
2019-01-18T22:12:04.867Z,33.30
2019-01-18T22:15:07.212Z,32.80
2019-01-18T22:17:46.806Z,29.90
2019-01-18T22:20:38.209Z,33.67
2019-01-18T22:23:34.784Z,29.57
2019-01-18T22:26:28.219Z,35.07
2019-01-18T22:29:22.032Z,32.47
2019-01-18T22:32:29.059Z,31.87
2019-01-18T22:35:31.386Z,33.47
2019-01-18T22:38:24.531Z,32.97
2019-01-18T22:41:10.307Z,34.10
2019-01-18T22:44:02.162Z,31.87
2019-01-18T22:46:51.047Z,33.27
2019-01-18T22:49:33.905Z,30.63
2019-01-18T22:52:34.332Z,32.90
2019-01-18T22:55:30.523Z,29.20
2019-01-18T22:58:28.719Z,28.90
2019-01-18T23:01:34.962Z,26.63
2019-01-18T23:04:20.982Z,29.00
2019-01-18T23:07:13.986Z,27.03
2019-01-18T23:10:13.316Z,28.80
2019-01-18T23:13:04.740Z,30.37
2019-01-18T23:15:56.537Z,28.50
2019-01-18T23:18:42.292Z,27.87
2019-01-18T23:21:55.493Z,26.57
2019-01-18T23:24:48.822Z,28.13
2019-01-18T23:27:51.848Z,27.87
2019-01-18T23:30:43.721Z,22.57
2019-01-18T23:33:32.421Z,26.77
2019-01-18T23:36:45.475Z,24.37
2019-01-18T23:39:39.757Z,25.40
2019-01-18T23:42:25.533Z,23.60
2019-01-18T23:45:17.587Z,23.67
2019-01-18T23:48:39.789Z,27.77
2019-01-18T23:51:51.313Z,21.90
2019-01-18T23:54:27.843Z,25.87
2019-01-18T23:57:23.991Z,24.13
